createdAt,value
2023-03-08T00:00:18.281Z,40.35
2023-03-08T00:02:53.700Z,39.65
2023-03-08T00:05:26.814Z,36.25
2023-03-08T00:07:59.229Z,38.60
2023-03-08T00:10:31.781Z,38.15
2023-03-08T00:13:05.611Z,37.65
2023-03-08T00:15:41.478Z,35.48
2023-03-08T00:18:15.493Z,37.75
2023-03-08T00:20:48.104Z,34.40
2023-03-08T00:23:20.544Z,34.10
2023-03-08T00:25:56.347Z,31.35
2023-03-08T00:28:28.969Z,32.45
2023-03-08T00:31:05.233Z,32.47
2023-03-08T00:33:38.869Z,36.73
2023-03-08T00:36:19.451Z,32.23
2023-03-08T00:38:52.812Z,33.65
2023-03-08T00:41:25.538Z,35.83
2023-03-08T00:43:57.833Z,32.67
2023-03-08T00:46:32.255Z,34.60
2023-03-08T00:49:04.993Z,35.28
2023-03-08T00:51:37.824Z,33.63
2023-03-08T00:54:11.279Z,34.05
2023-03-08T00:56:44.201Z,37.42
2023-03-08T00:59:16.734Z,38.58
2023-03-08T01:01:49.315Z,39.78
2023-03-08T01:04:23.174Z,36.05
2023-03-08T01:06:56.198Z,34.60
2023-03-08T01:09:29.304Z,34.10
2023-03-08T01:12:01.732Z,35.90
2023-03-08T01:14:35.495Z,33.73
2023-03-08T01:17:07.830Z,35.52
2023-03-08T01:19:40.364Z,38.33
2023-03-08T01:22:13.007Z,37.00
2023-03-08T01:24:49.764Z,33.23
2023-03-08T01:27:23.899Z,33.18
2023-03-08T01:29:56.569Z,34.92
2023-03-08T01:32:29.497Z,41.50
2023-03-08T01:35:04.748Z,36.83
2023-03-08T01:37:37.158Z,32.42
2023-03-08T01:40:11.576Z,32.35
2023-03-08T01:42:44.077Z,30.37
2023-03-08T01:46:00.990Z,32.00
2023-03-08T01:48:41.659Z,36.08
2023-03-08T01:51:20.675Z,31.15
2023-03-08T01:53:53.383Z,35.43
2023-03-08T01:56:25.971Z,36.35
2023-03-08T01:59:00.153Z,35.63
2023-03-08T02:01:33.613Z,34.13
2023-03-08T02:04:06.565Z,32.95
2023-03-08T02:06:40.015Z,35.38
2023-03-08T02:09:12.714Z,33.78
2023-03-08T02:11:45.214Z,27.00
2023-03-08T02:14:17.987Z,31.25
2023-03-08T02:16:52.134Z,33.33
2023-03-08T02:19:32.706Z,37.85
2023-03-08T02:22:16.144Z,35.68
2023-03-08T02:27:25.365Z,33.45
2023-03-08T02:29:58.352Z,31.45
2023-03-08T02:32:31.407Z,32.78
2023-03-08T02:35:06.198Z,31.75
2023-03-08T02:37:39.092Z,32.07
2023-03-08T02:40:13.385Z,33.30
2023-03-08T02:45:17.660Z,32.53
2023-03-08T02:47:50.673Z,31.68
2023-03-08T02:50:23.489Z,35.88
2023-03-08T02:52:56.032Z,33.23
2023-03-08T02:55:30.623Z,34.18
2023-03-08T02:58:06.404Z,33.50
2023-03-08T03:00:39.393Z,33.67
2023-03-08T03:03:12.741Z,37.53
2023-03-08T03:05:45.821Z,38.25
2023-03-08T03:08:24.041Z,38.25
2023-03-08T03:10:59.274Z,36.03
2023-03-08T03:13:33.121Z,42.50
2023-03-08T03:16:14.378Z,42.58
2023-03-08T03:18:46.920Z,41.13
2023-03-08T03:21:20.113Z,41.35
2023-03-08T03:23:53.075Z,39.05
2023-03-08T03:26:26.982Z,43.68
2023-03-08T03:29:00.489Z,38.53
2023-03-08T03:31:35.770Z,34.60
2023-03-08T03:34:09.477Z,37.08
2023-03-08T03:36:43.975Z,36.58
2023-03-08T03:39:16.500Z,36.03
2023-03-08T03:41:49.873Z,34.58
2023-03-08T03:44:22.394Z,35.80
2023-03-08T03:46:54.924Z,33.70
2023-03-08T03:52:01.514Z,33.40
2023-03-08T03:54:36.098Z,34.73
2023-03-08T03:57:08.421Z,34.80
2023-03-08T03:59:44.483Z,33.08
2023-03-08T04:02:18.037Z,34.78
2023-03-08T04:07:25.794Z,34.10
2023-03-08T04:10:03.281Z,29.75
2023-03-08T04:12:36.680Z,34.70
2023-03-08T04:15:10.542Z,32.53
2023-03-08T04:17:43.599Z,36.58
2023-03-08T04:20:17.188Z,35.73
2023-03-08T04:22:52.350Z,36.50
2023-03-08T04:25:27.022Z,40.75
2023-03-08T04:28:02.274Z,33.48
2023-03-08T04:30:37.138Z,37.55
2023-03-08T04:33:10.567Z,39.13
2023-03-08T04:35:45.724Z,38.00
2023-03-08T04:38:19.079Z,32.40
2023-03-08T04:41:02.809Z,31.10
2023-03-08T04:43:37.262Z,30.55
2023-03-08T04:46:10.144Z,29.65
2023-03-08T04:48:43.972Z,33.05
2023-03-08T04:51:18.138Z,35.95
2023-03-08T04:53:51.353Z,36.30
2023-03-08T04:56:24.904Z,34.83
2023-03-08T04:58:58.691Z,31.05
2023-03-08T05:01:32.370Z,34.98
2023-03-08T05:04:05.029Z,30.40
2023-03-08T05:06:39.555Z,31.23
2023-03-08T05:09:13.874Z,30.57
2023-03-08T05:11:46.795Z,31.70
2023-03-08T05:14:21.975Z,33.13
2023-03-08T05:17:00.461Z,31.82
2023-03-08T05:19:34.279Z,34.18
2023-03-08T05:22:07.131Z,31.90
2023-03-08T05:24:42.374Z,27.07
2023-03-08T05:27:37.266Z,31.48
2023-03-08T05:30:11.251Z,32.78
2023-03-08T05:32:44.878Z,29.55
2023-03-08T05:35:17.513Z,28.85
2023-03-08T05:37:50.735Z,29.98
2023-03-08T05:40:23.871Z,34.60
2023-03-08T05:42:56.891Z,31.80
2023-03-08T05:45:29.691Z,33.45
2023-03-08T05:48:02.692Z,27.50
2023-03-08T05:53:11.268Z,32.65
2023-03-08T05:55:44.086Z,30.35
2023-03-08T05:58:17.588Z,32.90
2023-03-08T06:00:50.161Z,33.53
2023-03-08T06:03:22.808Z,34.80
2023-03-08T06:05:55.269Z,30.30
2023-03-08T06:08:28.703Z,32.00
2023-03-08T06:11:01.809Z,28.35
2023-03-08T06:13:35.185Z,32.70
2023-03-08T06:16:08.071Z,27.58
2023-03-08T06:18:41.360Z,29.92
2023-03-08T06:21:17.289Z,30.65
2023-03-08T06:23:51.529Z,29.27
2023-03-08T06:26:24.195Z,28.27
2023-03-08T06:28:57.110Z,30.20
2023-03-08T06:31:31.158Z,29.82
2023-03-08T06:34:04.762Z,29.87
2023-03-08T06:36:38.174Z,27.00
2023-03-08T06:39:10.606Z,27.40
2023-03-08T06:41:43.996Z,34.18
2023-03-08T06:44:18.114Z,30.68
2023-03-08T06:46:50.629Z,29.15
2023-03-08T06:49:23.674Z,26.33
2023-03-08T06:51:56.416Z,35.85
2023-03-08T06:54:29.255Z,30.40
2023-03-08T06:57:01.883Z,32.10
2023-03-08T06:59:34.381Z,29.92
2023-03-08T07:02:07.091Z,27.25
2023-03-08T07:04:39.626Z,30.02
2023-03-08T07:07:12.987Z,31.23
2023-03-08T07:09:46.790Z,29.40
2023-03-08T07:12:20.324Z,25.92
2023-03-08T07:14:55.268Z,29.12
2023-03-08T07:17:27.568Z,28.95
2023-03-08T07:19:59.931Z,27.87
2023-03-08T07:22:33.156Z,31.87
2023-03-08T07:25:07.261Z,33.92
2023-03-08T07:27:40.087Z,29.57
2023-03-08T07:30:34.627Z,30.68
2023-03-08T07:33:07.681Z,28.15
2023-03-08T07:35:40.473Z,32.15
2023-03-08T07:38:37.716Z,26.85
2023-03-08T07:41:10.706Z,37.65
2023-03-08T07:43:45.042Z,35.60
2023-03-08T07:46:25.526Z,34.73
2023-03-08T07:48:58.296Z,31.27
2023-03-08T07:51:30.882Z,35.73
2023-03-08T07:54:04.104Z,33.40
2023-03-08T07:56:37.077Z,34.00
2023-03-08T07:59:09.852Z,31.48
2023-03-08T08:01:42.591Z,34.30
2023-03-08T08:04:15.317Z,33.38
2023-03-08T08:06:48.790Z,29.72
2023-03-08T08:09:21.295Z,30.48
2023-03-08T08:11:53.882Z,31.87
2023-03-08T08:14:27.402Z,31.87
2023-03-08T08:17:00.032Z,33.15
2023-03-08T08:19:32.620Z,30.25
2023-03-08T08:22:06.222Z,32.65
2023-03-08T08:24:39.068Z,31.10
2023-03-08T08:27:13.706Z,28.85
2023-03-08T08:29:47.878Z,28.12
2023-03-08T08:32:21.649Z,29.92
2023-03-08T08:34:54.567Z,27.48
2023-03-08T08:37:26.942Z,27.13
2023-03-08T08:39:59.601Z,29.57
2023-03-08T08:42:32.242Z,31.75
2023-03-08T08:45:05.164Z,27.45
2023-03-08T08:47:37.939Z,30.92
2023-03-08T08:50:14.073Z,29.37
2023-03-08T08:52:46.134Z,30.25
2023-03-08T08:55:19.520Z,26.85
2023-03-08T08:57:52.028Z,31.10
2023-03-08T09:00:24.736Z,28.60
2023-03-08T09:02:57.690Z,30.77
2023-03-08T09:05:30.272Z,31.85
2023-03-08T09:08:03.662Z,32.10
2023-03-08T09:10:37.612Z,29.35
2023-03-08T09:13:12.791Z,27.67
2023-03-08T09:15:45.173Z,26.52
2023-03-08T09:18:18.274Z,23.62
2023-03-08T09:20:52.152Z,27.05
2023-03-08T09:23:24.962Z,29.85
2023-03-08T09:26:02.413Z,25.15
2023-03-08T09:28:35.978Z,25.08
2023-03-08T09:31:15.175Z,26.45
2023-03-08T09:33:52.316Z,24.37
2023-03-08T09:36:25.068Z,26.45
2023-03-08T09:38:58.088Z,29.90
2023-03-08T09:41:51.736Z,27.77
2023-03-08T09:45:10.381Z,22.60
2023-03-08T09:47:57.673Z,28.55
2023-03-08T09:50:57.732Z,30.05
2023-03-08T09:53:49.332Z,34.95
2023-03-08T09:56:44.640Z,30.43
2023-03-08T09:59:33.814Z,30.60
2023-03-08T10:02:32.405Z,25.68
2023-03-08T10:05:41.492Z,27.42
2023-03-08T10:08:28.223Z,27.10
2023-03-08T10:11:12.216Z,23.07
2023-03-08T10:13:50.665Z,19.98
2023-03-08T10:16:30.318Z,19.20
2023-03-08T10:19:13.110Z,21.12
2023-03-08T10:21:45.862Z,23.12
2023-03-08T10:24:27.242Z,22.82
2023-03-08T10:27:25.297Z,22.90
2023-03-08T10:30:00.190Z,21.55
2023-03-08T10:32:33.330Z,20.32
2023-03-08T10:35:16.961Z,19.70
2023-03-08T10:37:53.129Z,19.07
2023-03-08T10:40:26.525Z,19.17
2023-03-08T10:43:05.704Z,20.62
2023-03-08T10:45:38.868Z,20.40
2023-03-08T10:48:21.279Z,22.35
2023-03-08T10:51:03.059Z,23.30
2023-03-08T10:53:36.018Z,22.30
2023-03-08T10:56:26.496Z,24.32
2023-03-08T10:58:59.016Z,22.02
2023-03-08T11:01:35.149Z,19.17
2023-03-08T11:04:18.766Z,22.85
2023-03-08T11:06:51.278Z,20.72
2023-03-08T11:09:33.593Z,26.20
2023-03-08T11:12:06.391Z,24.63
2023-03-08T11:14:39.042Z,22.93
2023-03-08T11:17:31.341Z,21.42
2023-03-08T11:20:33.093Z,23.10
2023-03-08T11:23:17.184Z,23.22
2023-03-08T11:26:01.040Z,23.18
2023-03-08T11:31:45.272Z,18.70
2023-03-08T11:34:43.769Z,20.00
2023-03-08T11:37:50.553Z,19.35
2023-03-08T11:40:36.219Z,21.15
2023-03-08T11:43:47.602Z,22.17
2023-03-08T11:46:31.612Z,18.92
2023-03-08T11:49:44.170Z,20.70
2023-03-08T11:52:27.190Z,18.87
2023-03-08T11:55:20.919Z,19.12
2023-03-08T11:57:58.702Z,16.62
2023-03-08T12:12:44.045Z,18.07
2023-03-08T12:15:46.456Z,18.02
2023-03-08T12:18:48.227Z,15.28
2023-03-08T12:21:52.828Z,17.77
2023-03-08T12:24:51.055Z,17.65
2023-03-08T12:27:49.404Z,18.95
2023-03-08T12:30:42.468Z,14.43
2023-03-08T12:33:16.437Z,15.45
2023-03-08T12:35:56.690Z,16.35
2023-03-08T12:38:46.071Z,17.32
2023-03-08T12:41:26.497Z,18.48
2023-03-08T12:44:26.838Z,16.27
2023-03-08T12:47:04.328Z,15.98
2023-03-08T12:49:42.245Z,13.35
2023-03-08T12:52:43.479Z,15.08
2023-03-08T12:55:25.895Z,16.67
2023-03-08T12:58:02.826Z,15.63
2023-03-08T13:00:37.944Z,14.45
2023-03-08T13:03:19.220Z,15.08
2023-03-08T13:05:52.429Z,15.98
2023-03-08T13:08:38.540Z,15.65
2023-03-08T13:11:16.955Z,14.70
2023-03-08T13:13:58.795Z,14.63
2023-03-08T13:16:39.917Z,17.80
2023-03-08T13:19:21.109Z,15.15
2023-03-08T13:22:21.027Z,13.08
2023-03-08T13:24:58.207Z,14.98
2023-03-08T13:27:50.775Z,13.58
2023-03-08T13:30:37.701Z,16.37
2023-03-08T13:33:36.634Z,15.43
2023-03-08T13:36:26.081Z,16.45
2023-03-08T13:39:05.897Z,18.65
2023-03-08T13:41:45.937Z,18.32
2023-03-08T13:44:26.832Z,19.17
2023-03-08T13:47:02.972Z,17.37
2023-03-08T13:49:38.240Z,20.85
2023-03-08T13:52:26.524Z,17.12
2023-03-08T13:55:01.713Z,16.05
2023-03-08T13:57:38.072Z,15.60
2023-03-08T14:00:32.687Z,19.17
2023-03-08T14:03:07.844Z,17.62
2023-03-08T14:05:44.193Z,16.93
2023-03-08T14:08:27.944Z,15.18
2023-03-08T14:11:08.416Z,17.43
2023-03-08T14:13:43.420Z,17.80
2023-03-08T14:16:42.228Z,15.90
2023-03-08T14:19:31.265Z,14.85
2023-03-08T14:22:14.404Z,16.77
2023-03-08T14:24:55.465Z,16.52
2023-03-08T14:27:45.509Z,16.77
2023-03-08T14:30:23.319Z,17.92
2023-03-08T14:33:19.522Z,16.52
2023-03-08T14:36:00.472Z,15.68
2023-03-08T14:38:34.482Z,17.12
2023-03-08T14:41:07.113Z,18.73
2023-03-08T14:43:39.808Z,21.40
2023-03-08T14:46:21.774Z,18.37
2023-03-08T14:49:05.213Z,25.68
2023-03-08T14:51:42.957Z,19.48
2023-03-08T14:54:35.023Z,18.87
2023-03-08T14:57:26.009Z,17.95
2023-03-08T15:00:05.030Z,15.60
2023-03-08T15:02:38.239Z,17.77
2023-03-08T15:05:28.095Z,16.80
2023-03-08T15:08:01.436Z,14.30
2023-03-08T15:10:40.688Z,14.55
2023-03-08T15:13:22.590Z,16.85
2023-03-08T15:15:56.184Z,17.30
2023-03-08T15:18:28.775Z,18.57
2023-03-08T15:21:01.487Z,17.98
2023-03-08T15:23:38.008Z,19.75
2023-03-08T15:26:14.278Z,16.50
2023-03-08T15:28:47.526Z,16.73
2023-03-08T15:31:20.416Z,21.50
2023-03-08T15:33:52.800Z,18.27
2023-03-08T15:36:26.955Z,16.80
2023-03-08T15:39:01.053Z,19.15
2023-03-08T15:44:05.730Z,21.07
2023-03-08T15:46:38.858Z,18.80
2023-03-08T15:49:11.668Z,20.08
2023-03-08T15:51:44.493Z,17.80
2023-03-08T15:54:16.977Z,15.38
2023-03-08T15:56:49.643Z,17.27
2023-03-08T15:59:22.084Z,20.12
2023-03-08T16:01:54.997Z,26.48
2023-03-08T16:04:27.732Z,15.63
2023-03-08T16:07:00.475Z,18.07
2023-03-08T16:09:33.359Z,16.05
2023-03-08T16:12:06.962Z,15.72
2023-03-08T16:14:39.847Z,13.58
2023-03-08T16:17:13.023Z,14.35
2023-03-08T16:19:47.077Z,14.78
2023-03-08T16:22:19.875Z,17.82
2023-03-08T16:24:52.428Z,16.12
2023-03-08T16:27:25.073Z,13.85
2023-03-08T16:29:57.742Z,15.58
2023-03-08T16:32:30.384Z,13.95
2023-03-08T16:35:08.091Z,15.25
2023-03-08T16:37:41.554Z,15.65
2023-03-08T16:40:16.652Z,14.53
2023-03-08T16:42:53.415Z,16.02
2023-03-08T16:45:26.043Z,13.80
2023-03-08T16:47:58.345Z,13.03
2023-03-08T16:50:32.611Z,20.60
2023-03-08T16:53:06.941Z,13.80
2023-03-08T16:55:41.132Z,18.67
2023-03-08T16:58:13.857Z,14.53
2023-03-08T17:00:46.296Z,13.18
2023-03-08T17:03:19.495Z,12.90
2023-03-08T17:05:52.328Z,26.62
2023-03-08T17:08:24.849Z,12.25
2023-03-08T17:10:57.420Z,16.27
2023-03-08T17:13:31.040Z,12.68
2023-03-08T17:16:05.685Z,12.37
2023-03-08T17:18:39.162Z,12.30
2023-03-08T17:21:11.508Z,11.95
2023-03-08T17:23:44.584Z,10.58
2023-03-08T17:26:17.480Z,14.35
2023-03-08T17:28:52.473Z,11.60
2023-03-08T17:31:25.297Z,12.50
2023-03-08T17:33:58.208Z,13.00
2023-03-08T17:36:30.872Z,15.45
2023-03-08T17:39:04.540Z,14.45
2023-03-08T17:41:38.809Z,14.53
2023-03-08T17:44:12.243Z,16.23
2023-03-08T17:46:44.710Z,21.82
2023-03-08T17:49:20.298Z,21.70
2023-03-08T17:52:12.579Z,19.15
2023-03-08T17:54:46.154Z,16.05
2023-03-08T17:57:18.939Z,15.90
2023-03-08T17:59:52.339Z,13.78
2023-03-08T18:02:24.684Z,18.02
2023-03-08T18:04:57.170Z,14.45
2023-03-08T18:07:29.868Z,15.78
2023-03-08T18:10:23.766Z,14.83
2023-03-08T18:12:56.942Z,17.03
2023-03-08T18:15:29.913Z,18.12
2023-03-08T18:18:02.996Z,17.52
2023-03-08T18:20:36.994Z,17.30
2023-03-08T18:23:10.314Z,18.15
2023-03-08T18:25:43.495Z,20.10
2023-03-08T18:28:18.438Z,19.90
2023-03-08T18:30:50.914Z,19.27
2023-03-08T18:33:25.260Z,19.42
2023-03-08T18:35:59.019Z,15.93
2023-03-08T18:38:34.348Z,18.40
2023-03-08T18:41:22.840Z,20.90
2023-03-08T18:43:56.565Z,30.50
2023-03-08T18:46:34.725Z,19.95
2023-03-08T18:49:11.480Z,20.92
2023-03-08T18:51:44.386Z,25.37
2023-03-08T18:54:20.225Z,24.92
2023-03-08T18:56:58.129Z,25.43
2023-03-08T18:59:31.748Z,28.87
2023-03-08T19:02:04.505Z,26.60
2023-03-08T19:04:44.212Z,25.45
2023-03-08T19:07:17.290Z,30.97
2023-03-08T19:09:50.445Z,27.50
2023-03-08T19:12:22.921Z,29.65
2023-03-08T19:14:55.957Z,29.98
2023-03-08T19:17:29.762Z,29.83
2023-03-08T19:20:02.548Z,26.68
2023-03-08T19:22:36.047Z,29.07
2023-03-08T19:25:09.785Z,29.95
2023-03-08T19:27:42.451Z,29.02
2023-03-08T19:30:16.020Z,27.63
2023-03-08T19:32:50.392Z,37.48
2023-03-08T19:35:23.199Z,37.53
2023-03-08T19:37:56.326Z,31.90
2023-03-08T19:40:34.473Z,32.23
2023-03-08T19:43:07.652Z,31.57
2023-03-08T19:45:40.956Z,32.08
2023-03-08T19:48:14.245Z,36.17
2023-03-08T19:50:47.945Z,36.53
2023-03-08T19:53:22.210Z,38.85
2023-03-08T19:55:56.027Z,39.63
2023-03-08T19:58:30.357Z,35.58
2023-03-08T20:01:04.940Z,36.83
2023-03-08T20:03:37.872Z,31.00
2023-03-08T20:06:11.198Z,33.50
2023-03-08T20:08:44.876Z,32.42
2023-03-08T20:11:17.253Z,36.20
2023-03-08T20:13:52.184Z,33.65
2023-03-08T20:18:58.983Z,32.88
2023-03-08T20:21:32.355Z,34.08
2023-03-08T20:24:05.516Z,32.08
2023-03-08T20:26:39.161Z,33.13
2023-03-08T20:29:11.921Z,33.50
2023-03-08T20:31:47.469Z,31.62
2023-03-08T20:34:20.567Z,37.23
2023-03-08T20:36:53.682Z,38.60
2023-03-08T20:39:26.465Z,42.45
2023-03-08T20:41:58.986Z,41.37
2023-03-08T20:44:31.808Z,38.48
2023-03-08T20:47:04.512Z,38.20
2023-03-08T20:49:37.728Z,37.38
2023-03-08T20:52:10.499Z,39.20
2023-03-08T20:54:43.500Z,40.78
2023-03-08T20:57:17.201Z,41.35
2023-03-08T20:59:50.360Z,43.15
2023-03-08T21:02:22.891Z,46.15
2023-03-08T21:05:01.151Z,45.20
2023-03-08T21:07:36.171Z,48.00
2023-03-08T21:10:09.961Z,44.80
2023-03-08T21:18:00.406Z,43.35
2023-03-08T21:20:38.303Z,43.00
2023-03-08T21:23:11.205Z,40.63
2023-03-08T21:25:44.044Z,36.15
2023-03-08T21:28:17.354Z,34.23
2023-03-08T21:30:50.805Z,37.40
2023-03-08T21:33:24.442Z,42.25
2023-03-08T21:35:56.832Z,37.90
2023-03-08T21:38:29.410Z,39.27
2023-03-08T21:41:03.102Z,39.92
2023-03-08T21:43:36.666Z,39.63
2023-03-08T21:46:09.724Z,38.58
2023-03-08T21:48:42.609Z,39.55
2023-03-08T21:51:15.237Z,40.05
2023-03-08T21:53:48.457Z,37.08
2023-03-08T21:56:21.453Z,43.08
2023-03-08T21:58:55.137Z,42.53
2023-03-08T22:01:29.876Z,37.53
2023-03-08T22:04:03.004Z,34.18
2023-03-08T22:06:35.864Z,34.55
2023-03-08T22:09:09.972Z,37.70
2023-03-08T22:11:43.624Z,40.53
2023-03-08T22:27:36.184Z,43.55
2023-03-08T22:30:11.661Z,47.85
2023-03-08T22:32:44.202Z,53.85
2023-03-08T22:35:17.011Z,59.70
2023-03-08T22:37:49.903Z,51.60
2023-03-08T22:40:22.442Z,58.15
2023-03-08T22:42:54.826Z,54.88
2023-03-08T22:45:27.124Z,57.33
2023-03-08T22:48:00.789Z,52.80
2023-03-08T22:50:34.184Z,57.00
2023-03-08T22:53:07.801Z,51.73
2023-03-08T22:55:47.748Z,58.48
2023-03-08T22:58:21.365Z,57.30
2023-03-08T23:00:53.924Z,51.80
2023-03-08T23:03:26.591Z,52.60
2023-03-08T23:06:00.554Z,53.63
2023-03-08T23:08:33.346Z,48.28
2023-03-08T23:11:07.005Z,43.52
2023-03-08T23:13:41.585Z,46.60
2023-03-08T23:16:15.896Z,49.15
2023-03-08T23:18:50.993Z,48.40
2023-03-08T23:21:25.280Z,51.73
2023-03-08T23:23:59.532Z,46.25
2023-03-08T23:26:32.909Z,50.15
2023-03-08T23:29:05.719Z,45.48
2023-03-08T23:31:40.738Z,46.95
2023-03-08T23:34:14.350Z,42.43
2023-03-08T23:36:47.006Z,50.48
2023-03-08T23:39:20.170Z,45.63
2023-03-08T23:41:52.673Z,42.13
2023-03-08T23:44:25.553Z,38.48
2023-03-08T23:46:57.975Z,40.88
2023-03-08T23:49:30.841Z,42.60
2023-03-08T23:52:03.516Z,40.25
2023-03-08T23:54:36.522Z,41.77
2023-03-08T23:57:09.219Z,42.83
2023-03-08T23:59:41.862Z,43.60
